createdAt,value
2022-11-26T00:02:20.485Z,99162.06
2022-11-26T00:04:47.136Z,99162.31
2022-11-26T00:07:13.954Z,99173.00
2022-11-26T00:09:40.501Z,99175.66
2022-11-26T00:12:24.047Z,99174.53
2022-11-26T00:14:50.789Z,99172.13
2022-11-26T00:17:17.322Z,99180.94
2022-11-26T00:19:44.247Z,99183.59
2022-11-26T00:22:30.088Z,99184.09
2022-11-26T00:24:57.852Z,99185.16
2022-11-26T00:27:25.803Z,99192.34
2022-11-26T00:29:52.493Z,99186.47
2022-11-26T00:32:25.307Z,99186.16
2022-11-26T00:34:52.467Z,99190.69
2022-11-26T00:37:29.478Z,99200.78
2022-11-26T00:39:56.313Z,99198.63
2022-11-26T00:42:22.893Z,99195.16
2022-11-26T00:44:49.385Z,99205.50
2022-11-26T00:47:15.849Z,99199.59
2022-11-26T00:49:42.338Z,99204.13
2022-11-26T00:52:31.582Z,99209.66
2022-11-26T00:54:58.138Z,99209.09
2022-11-26T00:57:24.589Z,99217.34
2022-11-26T00:59:51.036Z,99220.28
2022-11-26T01:02:17.532Z,99223.16
2022-11-26T01:04:44.021Z,99228.50
2022-11-26T01:07:10.758Z,99224.22
2022-11-26T01:09:37.277Z,99228.19
2022-11-26T01:12:03.755Z,99234.56
2022-11-26T01:14:30.487Z,99232.41
2022-11-26T01:16:57.225Z,99238.28
2022-11-26T01:19:23.807Z,99240.16
2022-11-26T01:21:50.840Z,99255.34
2022-11-26T01:24:17.308Z,99255.03
2022-11-26T01:26:44.104Z,99244.59
2022-11-26T01:29:18.196Z,99261.41
2022-11-26T01:31:44.607Z,99263.28
2022-11-26T01:34:11.158Z,99259.22
2022-11-26T01:36:39.198Z,99272.81
2022-11-26T01:39:19.499Z,99269.59
2022-11-26T01:42:07.654Z,99275.41
2022-11-26T01:44:35.428Z,99268.66
2022-11-26T01:47:02.494Z,99268.91
2022-11-26T01:49:29.903Z,99271.25
2022-11-26T01:52:20.426Z,99281.38
2022-11-26T01:54:46.869Z,99284.28
2022-11-26T01:57:15.991Z,99286.38
2022-11-26T01:59:43.425Z,99283.47
2022-11-26T02:02:10.019Z,99290.34
2022-11-26T02:04:41.881Z,99295.88
2022-11-26T02:07:08.401Z,99298.81
2022-11-26T02:09:34.946Z,99304.59
2022-11-26T02:12:01.419Z,99304.06
2022-11-26T02:14:45.786Z,99303.72
2022-11-26T02:17:15.145Z,99316.81
2022-11-26T02:20:00.314Z,99318.09
2022-11-26T02:22:45.276Z,99316.47
2022-11-26T02:25:36.608Z,99329.00
2022-11-26T02:28:33.953Z,99330.53
2022-11-26T02:31:09.504Z,99329.72
2022-11-26T02:33:45.048Z,99331.78
2022-11-26T02:36:22.217Z,99330.44
2022-11-26T02:38:48.690Z,99333.09
2022-11-26T02:41:15.186Z,99334.97
2022-11-26T02:43:41.646Z,99337.28
2022-11-26T02:46:12.884Z,99335.66
2022-11-26T02:48:42.357Z,99343.06
2022-11-26T02:51:13.137Z,99340.41
2022-11-26T02:53:39.929Z,99345.97
2022-11-26T02:56:17.234Z,99349.06
2022-11-26T02:58:43.772Z,99353.34
2022-11-26T03:01:17.937Z,99347.47
2022-11-26T03:03:46.831Z,99353.03
2022-11-26T03:06:13.935Z,99359.63
2022-11-26T03:08:40.540Z,99358.84
2022-11-26T03:11:07.257Z,99366.25
2022-11-26T03:13:33.789Z,99359.28
2022-11-26T03:16:00.282Z,99362.19
2022-11-26T03:18:26.760Z,99359.78
2022-11-26T03:20:53.212Z,99362.66
2022-11-26T03:23:19.696Z,99357.59
2022-11-26T03:25:46.193Z,99360.50
2022-11-26T03:28:12.641Z,99357.47
2022-11-26T03:30:39.084Z,99361.41
2022-11-26T03:33:05.954Z,99360.28
2022-11-26T03:35:32.407Z,99369.06
2022-11-26T03:37:59.866Z,99363.16
2022-11-26T03:40:26.405Z,99359.13
2022-11-26T03:42:52.848Z,99364.66
2022-11-26T03:45:19.320Z,99368.38
2022-11-26T03:47:45.765Z,99374.50
2022-11-26T03:50:12.473Z,99383.81
2022-11-26T03:52:38.932Z,99383.19
2022-11-26T03:55:05.717Z,99381.59
2022-11-26T03:57:32.185Z,99374.66
2022-11-26T03:59:58.641Z,99379.38
2022-11-26T04:02:25.100Z,99385.75
2022-11-26T04:04:51.580Z,99369.78
2022-11-26T04:07:18.213Z,99375.09
2022-11-26T04:09:44.711Z,99385.19
2022-11-26T04:12:11.195Z,99375.34
2022-11-26T04:14:37.960Z,99379.28
2022-11-26T04:17:04.571Z,99382.97
2022-11-26T04:19:31.035Z,99385.09
2022-11-26T04:21:57.633Z,99381.63
2022-11-26T04:24:24.098Z,99385.28
2022-11-26T04:26:50.546Z,99377.19
2022-11-26T04:29:17.040Z,99386.34
2022-11-26T04:31:43.747Z,99384.97
2022-11-26T04:34:10.297Z,99390.75
2022-11-26T04:36:36.797Z,99386.47
2022-11-26T04:39:03.245Z,99384.03
2022-11-26T04:41:29.691Z,99377.31
2022-11-26T04:43:56.163Z,99386.34
2022-11-26T04:46:22.665Z,99397.00
2022-11-26T04:48:49.120Z,99393.75
2022-11-26T04:51:15.580Z,99408.09
2022-11-26T04:53:42.039Z,99414.47
2022-11-26T04:56:08.518Z,99407.53
2022-11-26T04:58:34.981Z,99409.59
2022-11-26T05:01:01.593Z,99417.59
2022-11-26T05:03:28.101Z,99422.34
2022-11-26T05:05:54.627Z,99427.66
2022-11-26T05:08:21.069Z,99429.53
2022-11-26T05:10:47.537Z,99429.53
2022-11-26T05:13:14.372Z,99432.38
2022-11-26T05:15:40.893Z,99439.56
2022-11-26T05:18:07.361Z,99445.69
2022-11-26T05:20:33.822Z,99444.31
2022-11-26T05:23:00.302Z,99448.84
2022-11-26T05:25:26.754Z,99449.66
2022-11-26T05:27:53.252Z,99442.88
2022-11-26T05:30:19.976Z,99448.44
2022-11-26T05:32:46.437Z,99438.84
2022-11-26T05:35:13.056Z,99444.38
2022-11-26T05:37:39.857Z,99447.28
2022-11-26T05:40:07.249Z,99450.38
2022-11-26T05:42:33.698Z,99460.22
2022-11-26T05:45:00.178Z,99455.94
2022-11-26T05:47:26.638Z,99460.47
2022-11-26T05:49:53.241Z,99465.19
2022-11-26T05:52:19.984Z,99466.03
2022-11-26T05:54:46.488Z,99465.41
2022-11-26T05:57:13.244Z,99468.31
2022-11-26T05:59:39.732Z,99471.19
2022-11-26T06:02:06.314Z,99466.09
2022-11-26T06:04:32.888Z,99473.84
2022-11-26T06:06:59.351Z,99478.34
2022-11-26T06:09:26.007Z,99477.69
2022-11-26T06:11:52.514Z,99473.53
2022-11-26T06:14:18.997Z,99476.19
2022-11-26T06:16:45.555Z,99484.16
2022-11-26T06:19:13.114Z,99484.16
2022-11-26T06:21:39.583Z,99488.13
2022-11-26T06:24:06.133Z,99497.09
2022-11-26T06:26:32.617Z,99502.22
2022-11-26T06:28:59.057Z,99508.13
2022-11-26T06:31:25.579Z,99508.13
2022-11-26T06:33:55.674Z,99508.13
2022-11-26T06:36:22.616Z,99507.31
2022-11-26T06:38:49.211Z,99520.03
2022-11-26T06:41:15.668Z,99514.34
2022-11-26T06:43:42.253Z,99518.88
2022-11-26T06:46:09.775Z,99520.72
2022-11-26T06:48:36.500Z,99528.91
2022-11-26T06:51:07.294Z,99529.72
2022-11-26T06:53:33.757Z,99532.97
2022-11-26T06:56:03.877Z,99535.41
2022-11-26T06:58:30.525Z,99538.88
2022-11-26T07:00:57.128Z,99536.00
2022-11-26T07:03:26.209Z,99537.88
2022-11-26T07:05:54.523Z,99544.81
2022-11-26T07:08:20.980Z,99545.84
2022-11-26T07:10:49.203Z,99545.84
2022-11-26T07:13:16.184Z,99546.84
2022-11-26T07:15:42.961Z,99540.72
2022-11-26T07:18:09.455Z,99543.63
2022-11-26T07:20:36.658Z,99556.69
2022-11-26T07:23:04.525Z,99559.59
2022-11-26T07:25:31.115Z,99555.06
2022-11-26T07:27:58.159Z,99561.44
2022-11-26T07:30:24.649Z,99558.41
2022-11-26T07:32:51.154Z,99557.84
2022-11-26T07:35:17.710Z,99555.38
2022-11-26T07:37:44.216Z,99563.97
2022-11-26T07:40:11.122Z,99571.47
2022-11-26T07:42:37.564Z,99564.31
2022-11-26T07:45:04.611Z,99569.41
2022-11-26T07:47:31.092Z,99570.59
2022-11-26T07:49:57.555Z,99578.91
2022-11-26T07:52:24.028Z,99579.75
2022-11-26T07:54:50.492Z,99580.09
2022-11-26T07:57:18.144Z,99584.16
2022-11-26T07:59:44.593Z,99587.06
2022-11-26T08:02:14.930Z,99585.22
2022-11-26T08:04:41.481Z,99583.38
2022-11-26T08:07:08.076Z,99584.41
2022-11-26T08:09:34.717Z,99585.91
2022-11-26T08:12:01.173Z,99589.81
2022-11-26T08:14:27.940Z,99592.09
2022-11-26T08:16:54.422Z,99595.56
2022-11-26T08:19:20.912Z,99609.09
2022-11-26T08:21:47.365Z,99610.38
2022-11-26T08:24:16.068Z,99610.56
2022-11-26T08:26:44.426Z,99607.34
2022-11-26T08:29:11.352Z,99614.50
2022-11-26T08:31:45.127Z,99619.16
2022-11-26T08:34:14.188Z,99617.97
2022-11-26T08:36:40.701Z,99617.03
2022-11-26T08:39:07.210Z,99621.31
2022-11-26T08:41:33.672Z,99621.31
2022-11-26T08:44:08.200Z,99616.00
2022-11-26T08:46:38.906Z,99605.78
2022-11-26T08:49:05.557Z,99609.25
2022-11-26T08:51:32.031Z,99605.41
2022-11-26T08:53:58.484Z,99615.72
2022-11-26T08:56:25.050Z,99615.75
2022-11-26T08:58:51.732Z,99615.75
2022-11-26T09:01:25.347Z,99621.56
2022-11-26T09:03:52.472Z,99620.94
2022-11-26T09:06:19.379Z,99622.56
2022-11-26T09:09:04.345Z,99642.44
2022-11-26T09:11:30.856Z,99628.34
2022-11-26T09:13:57.688Z,99627.88
2022-11-26T09:16:24.594Z,99631.53
2022-11-26T09:18:51.288Z,99636.09
2022-11-26T09:21:18.258Z,99627.22
2022-11-26T09:23:45.025Z,99634.63
2022-11-26T09:26:11.477Z,99638.31
2022-11-26T09:28:38.014Z,99640.38
2022-11-26T09:31:04.477Z,99642.81
2022-11-26T09:33:31.092Z,99636.84
2022-11-26T09:36:08.169Z,99639.84
2022-11-26T09:38:34.917Z,99644.28
2022-11-26T09:41:26.772Z,99649.63
2022-11-26T09:44:08.489Z,99647.97
2022-11-26T09:46:45.631Z,99652.19
2022-11-26T09:49:23.891Z,99655.91
2022-11-26T09:51:52.360Z,99651.03
2022-11-26T09:54:20.373Z,99649.88
2022-11-26T09:56:48.552Z,99654.56
2022-11-26T09:59:16.759Z,99654.56
2022-11-26T10:01:43.381Z,99656.53
2022-11-26T10:04:23.881Z,99657.84
2022-11-26T10:07:12.043Z,99657.06
2022-11-26T10:09:48.491Z,99660.94
2022-11-26T10:12:25.831Z,99665.78
2022-11-26T10:14:55.588Z,99660.97
2022-11-26T10:17:36.130Z,99666.00
2022-11-26T10:20:17.859Z,99663.13
2022-11-26T10:22:57.142Z,99667.59
2022-11-26T10:25:26.732Z,99671.09
2022-11-26T10:27:54.277Z,99672.38
2022-11-26T10:30:21.760Z,99672.06
2022-11-26T10:32:48.878Z,99673.84
2022-11-26T10:35:19.993Z,99666.69
2022-11-26T10:37:46.506Z,99672.16
2022-11-26T10:40:27.137Z,99668.81
2022-11-26T10:43:08.563Z,99668.97
2022-11-26T10:45:36.551Z,99668.38
2022-11-26T10:48:34.115Z,99669.25
2022-11-26T10:51:15.428Z,99671.19
2022-11-26T10:53:52.914Z,99676.69
2022-11-26T10:56:20.791Z,99672.75
2022-11-26T10:58:47.564Z,99670.47
2022-11-26T11:01:15.425Z,99667.78
2022-11-26T11:04:08.858Z,99665.06
2022-11-26T11:06:38.697Z,99666.00
2022-11-26T11:09:22.995Z,99664.97
2022-11-26T11:12:07.569Z,99665.53
2022-11-26T11:14:37.155Z,99665.91
2022-11-26T11:17:06.316Z,99668.50
2022-11-26T11:19:32.774Z,99669.88
2022-11-26T11:21:59.259Z,99662.81
2022-11-26T11:24:29.996Z,99668.53
2022-11-26T11:26:57.045Z,99657.97
2022-11-26T11:29:30.162Z,99671.44
2022-11-26T11:31:57.699Z,99662.84
2022-11-26T11:34:44.505Z,99665.28
2022-11-26T11:37:18.636Z,99664.00
2022-11-26T11:39:45.320Z,99664.00
2022-11-26T11:42:30.029Z,99658.81
2022-11-26T11:44:57.186Z,99665.56
2022-11-26T11:47:43.206Z,99660.78
2022-11-26T11:50:29.292Z,99665.06
2022-11-26T11:53:17.778Z,99665.50
2022-11-26T11:56:17.486Z,99658.31
2022-11-26T11:59:22.102Z,99657.06
2022-11-26T12:02:13.504Z,99656.63
2022-11-26T12:05:17.457Z,99660.31
2022-11-26T12:07:47.999Z,99658.00
2022-11-26T12:10:32.342Z,99664.88
2022-11-26T12:13:01.689Z,99664.75
2022-11-26T12:15:38.345Z,99667.09
2022-11-26T12:18:19.937Z,99660.16
2022-11-26T12:21:01.575Z,99653.09
2022-11-26T12:23:36.648Z,99646.59
2022-11-26T12:26:26.526Z,99647.41
2022-11-26T12:29:01.960Z,99645.75
2022-11-26T12:31:56.230Z,99642.06
2022-11-26T12:34:31.450Z,99644.81
2022-11-26T12:37:13.206Z,99651.31
2022-11-26T12:39:53.170Z,99642.72
2022-11-26T12:42:41.768Z,99637.38
2022-11-26T12:45:23.393Z,99647.13
2022-11-26T12:47:53.024Z,99649.56
2022-11-26T12:50:48.429Z,99657.56
2022-11-26T12:53:40.344Z,99655.47
2022-11-26T12:56:16.177Z,99651.56
2022-11-26T12:58:57.246Z,99650.47
2022-11-26T13:01:24.390Z,99658.13
2022-11-26T13:03:59.515Z,99657.31
2022-11-26T13:06:59.647Z,99654.66
2022-11-26T13:09:45.122Z,99660.00
2022-11-26T13:12:16.700Z,99655.47
2022-11-26T13:14:45.977Z,99656.88
2022-11-26T13:17:14.059Z,99665.69
2022-11-26T13:19:50.896Z,99663.03
2022-11-26T13:22:48.797Z,99670.78
2022-11-26T13:25:36.533Z,99667.31
2022-11-26T13:28:21.840Z,99670.78
2022-11-26T13:31:05.633Z,99666.50
2022-11-26T13:33:52.819Z,99665.09
2022-11-26T13:36:34.533Z,99670.41
2022-11-26T13:39:09.959Z,99672.25
2022-11-26T13:42:01.030Z,99665.56
2022-11-26T13:44:51.702Z,99662.22
2022-11-26T13:47:20.899Z,99664.88
2022-11-26T13:50:06.383Z,99664.63
2022-11-26T13:52:39.986Z,99668.09
2022-11-26T13:55:16.606Z,99660.13
2022-11-26T13:57:46.287Z,99661.16
2022-11-26T14:00:23.234Z,99663.81
2022-11-26T14:02:49.738Z,99655.84
2022-11-26T14:05:16.447Z,99664.28
2022-11-26T14:07:43.656Z,99668.78
2022-11-26T14:10:34.861Z,99658.50
2022-11-26T14:13:04.121Z,99653.28
2022-11-26T14:15:42.756Z,99655.84
2022-11-26T14:18:13.136Z,99658.19
2022-11-26T14:20:57.880Z,99658.13
2022-11-26T14:23:48.554Z,99657.78
2022-11-26T14:26:18.795Z,99656.06
2022-11-26T14:28:45.279Z,99661.72
2022-11-26T14:31:21.616Z,99654.09
2022-11-26T14:33:48.557Z,99657.31
2022-11-26T14:36:22.427Z,99654.91
2022-11-26T14:39:27.889Z,99659.88
2022-11-26T14:42:04.100Z,99663.59
2022-11-26T14:44:32.187Z,99668.09
2022-11-26T14:46:59.196Z,99672.38
2022-11-26T14:49:48.808Z,99652.34
2022-11-26T14:52:20.830Z,99661.41
2022-11-26T14:54:54.957Z,99655.91
2022-11-26T14:57:24.003Z,99659.44
2022-11-26T15:00:07.610Z,99662.31
2022-11-26T15:02:38.654Z,99665.44
2022-11-26T15:05:19.204Z,99662.63
2022-11-26T15:07:45.802Z,99657.78
2022-11-26T15:10:15.148Z,99667.81
2022-11-26T15:12:42.700Z,99662.34
2022-11-26T15:15:12.084Z,99659.34
2022-11-26T15:17:38.534Z,99652.03
2022-11-26T15:20:06.730Z,99652.03
2022-11-26T15:22:38.960Z,99655.53
2022-11-26T15:25:06.767Z,99645.88
2022-11-26T15:27:37.240Z,99647.97
2022-11-26T15:30:24.246Z,99644.97
2022-11-26T15:33:12.286Z,99642.44
2022-11-26T15:35:39.928Z,99646.47
2022-11-26T15:38:17.353Z,99637.25
2022-11-26T15:40:50.604Z,99632.63
2022-11-26T15:43:26.946Z,99641.81
2022-11-26T15:46:14.779Z,99636.25
2022-11-26T15:48:52.416Z,99637.06
2022-11-26T15:51:29.531Z,99631.38
2022-11-26T15:54:00.919Z,99631.47
2022-11-26T15:56:29.367Z,99630.09
2022-11-26T15:58:57.212Z,99632.41
2022-11-26T16:01:25.139Z,99631.81
2022-11-26T16:03:52.557Z,99634.16
2022-11-26T16:06:36.885Z,99638.16
2022-11-26T16:09:10.683Z,99632.91
2022-11-26T16:11:57.824Z,99639.97
2022-11-26T16:14:35.064Z,99637.75
2022-11-26T16:17:20.319Z,99633.94
2022-11-26T16:19:57.265Z,99644.00
2022-11-26T16:22:28.364Z,99643.19
2022-11-26T16:25:05.751Z,99641.09
2022-11-26T16:27:32.270Z,99653.53
2022-11-26T16:29:59.406Z,99653.88
2022-11-26T16:32:25.904Z,99655.28
2022-11-26T16:34:52.381Z,99656.69
2022-11-26T16:37:26.336Z,99650.88
2022-11-26T16:39:59.530Z,99649.63
2022-11-26T16:42:25.991Z,99645.69
2022-11-26T16:44:52.494Z,99653.13
2022-11-26T16:47:30.139Z,99653.50
2022-11-26T16:49:56.838Z,99643.44
2022-11-26T16:52:23.393Z,99653.84
2022-11-26T16:54:50.404Z,99652.13
2022-11-26T16:57:18.968Z,99653.72
2022-11-26T16:59:47.243Z,99646.22
2022-11-26T17:02:21.352Z,99650.75
2022-11-26T17:04:47.931Z,99660.81
2022-11-26T17:07:15.841Z,99650.59
2022-11-26T17:09:42.518Z,99647.59
2022-11-26T17:12:17.100Z,99649.78
2022-11-26T17:14:43.869Z,99643.44
2022-11-26T17:17:28.771Z,99649.91
2022-11-26T17:19:56.645Z,99643.56
2022-11-26T17:22:26.633Z,99644.13
2022-11-26T17:24:53.179Z,99648.88
2022-11-26T17:27:20.479Z,99647.22
2022-11-26T17:29:47.131Z,99648.28
2022-11-26T17:32:14.423Z,99651.88
2022-11-26T17:34:41.126Z,99652.91
2022-11-26T17:37:13.405Z,99641.69
2022-11-26T17:39:40.117Z,99646.53
2022-11-26T17:42:06.847Z,99652.34
2022-11-26T17:44:33.317Z,99650.50
2022-11-26T17:47:16.308Z,99644.34
2022-11-26T17:49:43.235Z,99649.22
2022-11-26T17:52:09.689Z,99648.50
2022-11-26T17:54:36.153Z,99649.56
2022-11-26T17:57:02.773Z,99646.91
2022-11-26T17:59:30.665Z,99637.41
2022-11-26T18:01:57.305Z,99643.19
2022-11-26T18:04:24.439Z,99640.03
2022-11-26T18:07:06.310Z,99637.84
2022-11-26T18:09:33.025Z,99641.16
2022-11-26T18:12:00.118Z,99634.59
2022-11-26T18:14:26.604Z,99632.50
2022-11-26T18:16:53.263Z,99633.09
2022-11-26T18:19:20.887Z,99627.03
2022-11-26T18:21:48.518Z,99633.97
2022-11-26T18:24:14.985Z,99626.78
2022-11-26T18:26:41.473Z,99624.09
2022-11-26T18:29:08.355Z,99629.53
2022-11-26T18:31:39.339Z,99632.81
2022-11-26T18:34:06.289Z,99630.69
2022-11-26T18:36:32.745Z,99637.13
2022-11-26T18:38:59.221Z,99636.31
2022-11-26T18:41:25.678Z,99636.41
2022-11-26T18:43:52.187Z,99637.97
2022-11-26T18:46:18.813Z,99650.28
2022-11-26T18:48:46.878Z,99642.25
2022-11-26T18:51:13.780Z,99644.31
2022-11-26T18:53:40.294Z,99642.94
2022-11-26T18:56:11.454Z,99636.06
2022-11-26T18:58:38.184Z,99645.78
2022-11-26T19:01:34.144Z,99640.75
2022-11-26T19:04:00.734Z,99646.50
2022-11-26T19:06:28.790Z,99637.44
2022-11-26T19:08:59.693Z,99627.16
2022-11-26T19:11:27.672Z,99635.72
2022-11-26T19:13:55.328Z,99628.84
2022-11-26T19:16:22.452Z,99627.66
2022-11-26T19:18:48.956Z,99622.03
2022-11-26T19:21:19.848Z,99627.72
2022-11-26T19:23:46.569Z,99623.91
2022-11-26T19:26:13.205Z,99620.00
2022-11-26T19:28:39.711Z,99619.19
2022-11-26T19:31:08.543Z,99625.28
2022-11-26T19:33:35.266Z,99617.72
2022-11-26T19:36:05.875Z,99624.94
2022-11-26T19:38:32.353Z,99623.25
2022-11-26T19:40:59.075Z,99621.22
2022-11-26T19:43:26.399Z,99622.03
2022-11-26T19:46:00.870Z,99627.06
2022-11-26T19:48:27.758Z,99623.19
2022-11-26T19:50:55.331Z,99625.84
2022-11-26T19:53:22.475Z,99625.28
2022-11-26T19:55:59.121Z,99628.94
2022-11-26T19:58:26.074Z,99620.16
2022-11-26T20:00:52.640Z,99618.00
2022-11-26T20:03:19.137Z,99621.13
2022-11-26T20:05:45.852Z,99620.66
2022-11-26T20:08:12.396Z,99623.16
2022-11-26T20:10:39.143Z,99624.78
2022-11-26T20:13:06.466Z,99626.56
2022-11-26T20:15:33.402Z,99621.94
2022-11-26T20:18:00.129Z,99622.44
2022-11-26T20:20:26.619Z,99610.69
2022-11-26T20:22:53.103Z,99611.97
2022-11-26T20:25:19.562Z,99621.66
2022-11-26T20:27:46.019Z,99604.69
2022-11-26T20:30:12.709Z,99605.03
2022-11-26T20:32:39.300Z,99607.13
2022-11-26T20:35:06.199Z,99593.75
2022-11-26T20:37:32.675Z,99594.16
2022-11-26T20:39:59.194Z,99593.22
2022-11-26T20:42:25.657Z,99595.47
2022-11-26T20:44:52.129Z,99594.59
2022-11-26T20:47:18.602Z,99594.19
2022-11-26T20:49:45.349Z,99589.16
2022-11-26T20:52:11.962Z,99592.16
2022-11-26T20:54:38.577Z,99592.63
2022-11-26T20:57:06.733Z,99593.13
2022-11-26T20:59:33.236Z,99590.94
2022-11-26T21:01:59.716Z,99600.47
2022-11-26T21:04:26.197Z,99604.69
2022-11-26T21:06:52.665Z,99605.09
2022-11-26T21:09:19.168Z,99606.63
2022-11-26T21:11:45.604Z,99608.75
2022-11-26T21:14:15.171Z,99618.84
2022-11-26T21:16:42.022Z,99619.44
2022-11-26T21:19:11.383Z,99625.50
2022-11-26T21:21:37.860Z,99634.00
2022-11-26T21:24:06.105Z,99637.00
2022-11-26T21:26:32.776Z,99636.41
2022-11-26T21:28:59.952Z,99646.06
2022-11-26T21:31:27.718Z,99647.25
2022-11-26T21:34:03.029Z,99654.22
2022-11-26T21:36:31.188Z,99658.19
2022-11-26T21:42:45.293Z,99672.47
2022-11-26T21:45:11.768Z,99665.75
2022-11-26T21:47:38.166Z,99660.53
2022-11-26T21:50:04.957Z,99667.72
2022-11-26T21:52:31.364Z,99662.56
2022-11-26T21:55:03.264Z,99653.53
2022-11-26T21:57:33.005Z,99651.38
2022-11-26T21:59:59.457Z,99653.06
2022-11-26T22:02:25.918Z,99658.75
2022-11-26T22:04:52.595Z,99662.22
2022-11-26T22:07:19.221Z,99661.41
2022-11-26T22:09:45.797Z,99659.63
2022-11-26T22:12:12.285Z,99651.50
2022-11-26T22:14:39.046Z,99649.13
2022-11-26T22:17:05.448Z,99648.69
2022-11-26T22:19:32.228Z,99647.72
2022-11-26T22:21:58.661Z,99640.25
2022-11-26T22:24:25.125Z,99636.81
2022-11-26T22:26:52.324Z,99636.47
2022-11-26T22:29:18.952Z,99630.19
2022-11-26T22:31:45.564Z,99623.06
2022-11-26T22:34:13.805Z,99618.56
2022-11-26T22:36:40.581Z,99619.09
2022-11-26T22:39:10.505Z,99616.53
2022-11-26T22:41:37.947Z,99610.94
2022-11-26T22:44:04.488Z,99613.34
2022-11-26T22:46:34.029Z,99606.38
2022-11-26T22:49:01.118Z,99602.31
2022-11-26T22:51:29.006Z,99594.59
2022-11-26T22:53:59.745Z,99584.44
2022-11-26T22:56:26.356Z,99586.09
2022-11-26T22:58:52.794Z,99570.56
2022-11-26T23:01:41.459Z,99571.09
2022-11-26T23:04:08.525Z,99569.25
2022-11-26T23:06:35.371Z,99572.75
2022-11-26T23:09:03.545Z,99572.59
2022-11-26T23:11:34.864Z,99579.75
2022-11-26T23:14:06.913Z,99570.09
2022-11-26T23:16:33.516Z,99568.75
2022-11-26T23:19:00.003Z,99571.97
2022-11-26T23:21:31.234Z,99575.25
2022-11-26T23:23:57.719Z,99570.91
2022-11-26T23:26:28.698Z,99571.94
2022-11-26T23:28:55.852Z,99557.22
2022-11-26T23:31:24.700Z,99551.84
2022-11-26T23:33:51.169Z,99545.16
2022-11-26T23:36:17.680Z,99542.47
2022-11-26T23:38:44.079Z,99553.19
2022-11-26T23:41:10.518Z,99557.16
2022-11-26T23:43:37.385Z,99552.88
2022-11-26T23:46:09.878Z,99546.72
2022-11-26T23:48:36.420Z,99539.50
2022-11-26T23:51:17.390Z,99542.66
2022-11-26T23:53:44.952Z,99535.38
2022-11-26T23:56:13.520Z,99540.44
2022-11-26T23:58:39.927Z,99537.44
